Time;durP1;ratioP1;P1;durP2;ratioP2;P2;SDS_P1;SDS_P2;PMS_P1;PMS_P2;Temp;Humidity;BMP_temperature;BMP_pressure;BME280_temperature;BME280_humidity;BME280_pressure;Samples;Min_cycle;Max_cycle;Signal;HPM_P1;HPM_P2
2024/02/23 00:00:12;;;;;;;5.53;0.20;;;5.50;99.90;;;;;;4980228;28;20030;-80
2024/02/23 00:02:38;;;;;;;5.65;0.00;;;;;;;;;;4980976;28;20022;-80
2024/02/23 00:05:04;;;;;;;6.10;0.52;;;5.60;99.90;;;;;;4979826;28;20037;-80
2024/02/23 00:07:30;;;;;;;9.32;0.22;;;5.60;99.90;;;;;;4979919;28;20022;-80
2024/02/23 00:09:56;;;;;;;1.85;0.10;;;5.70;99.90;;;;;;4997906;28;20033;-80
2024/02/23 00:12:21;;;;;;;6.13;0.30;;;5.70;99.90;;;;;;4997958;28;20041;-80
2024/02/23 00:14:47;;;;;;;4.22;0.30;;;5.70;99.90;;;;;;4979562;28;20019;-80
2024/02/23 00:17:12;;;;;;;3.70;0.00;;;5.80;99.90;;;;;;4997146;28;20037;-80
2024/02/23 00:19:38;;;;;;;7.05;0.45;;;5.80;99.90;;;;;;4978752;28;20019;-80
2024/02/23 00:22:04;;;;;;;7.22;0.10;;;8.20;99.90;;;;;;4979777;28;20018;-80
2024/02/23 00:24:29;;;;;;;11.10;0.63;;;5.80;99.90;;;;;;4979343;28;20459;-80
2024/02/23 00:26:55;;;;;;;5.60;0.20;;;5.90;99.90;;;;;;4978998;28;20065;-80
2024/02/23 00:29:21;;;;;;;5.57;0.10;;;5.90;99.90;;;;;;4980199;28;20072;-80
2024/02/23 00:31:47;;;;;;;2.10;0.95;;;6.00;99.90;;;;;;4979903;28;20554;-80
2024/02/23 00:34:13;;;;;;;9.48;0.52;;;6.00;99.90;;;;;;4978807;28;20127;-80
2024/02/23 00:36:40;;;;;;;9.82;0.30;;;6.00;99.90;;;;;;4998066;28;20025;-80
2024/02/23 00:39:07;;;;;;;8.43;0.90;;;6.00;99.90;;;;;;4999896;28;20042;-80
2024/02/23 00:41:33;;;;;;;8.48;0.98;;;6.00;99.90;;;;;;4999737;28;20027;-80
2024/02/23 00:43:59;;;;;;;7.82;1.35;;;;;;;;;;5001256;28;20030;-80
2024/02/23 00:46:25;;;;;;;6.03;0.20;;;;;;;;;;4982930;28;20045;-80
2024/02/23 00:48:51;;;;;;;7.45;0.10;;;6.10;99.90;;;;;;4982337;28;20030;-80
2024/02/23 00:51:16;;;;;;;13.93;0.57;;;6.20;99.90;;;;;;4983092;28;20390;-80
2024/02/23 00:53:42;;;;;;;7.13;0.30;;;6.20;99.90;;;;;;4982524;28;20030;-80
2024/02/23 00:56:08;;;;;;;6.85;0.08;;;6.20;99.90;;;;;;4982470;28;20022;-80
2024/02/23 00:58:33;;;;;;;6.88;0.28;;;6.10;99.90;;;;;;4983143;28;20497;-80
2024/02/23 01:01:00;;;;;;;2.30;0.03;;;6.10;99.90;;;;;;4982894;28;20031;-80
2024/02/23 01:03:25;;;;;;;6.78;0.57;;;6.10;99.90;;;;;;5000540;28;20033;-80
2024/02/23 01:05:51;;;;;;;4.28;0.00;;;6.00;99.90;;;;;;4983017;28;20117;-80
2024/02/23 01:08:17;;;;;;;5.47;0.00;;;5.90;99.90;;;;;;4983160;28;20027;-80
2024/02/23 01:10:43;;;;;;;2.17;0.00;;;5.80;99.90;;;;;;4982683;28;20030;-80
2024/02/23 01:13:08;;;;;;;3.30;0.20;;;5.80;99.90;;;;;;4982858;28;20026;-80
2024/02/23 01:15:34;;;;;;;5.05;0.20;;;5.70;99.90;;;;;;5000670;28;20505;-80
2024/02/23 01:18:00;;;;;;;1.95;0.00;;;5.60;99.90;;;;;;4983517;28;20034;-80
2024/02/23 01:20:25;;;;;;;2.13;0.08;;;5.60;99.90;;;;;;4984478;28;20049;-80
2024/02/23 01:22:51;;;;;;;5.20;0.00;;;5.40;99.90;;;;;;4984033;28;20398;-80
2024/02/23 01:25:17;;;;;;;1.55;0.00;;;5.30;99.90;;;;;;4983917;28;20023;-79
2024/02/23 01:30:19;;;;;;;7.57;0.75;;;5.00;99.90;;;;;;5380348;23;20069;-80
2024/02/23 01:32:45;;;;;;;4.10;0.00;;;4.90;99.90;;;;;;5019476;28;20470;-80
2024/02/23 01:35:11;;;;;;;4.40;0.30;;;4.90;99.90;;;;;;5019742;28;20042;-79
2024/02/23 01:37:37;;;;;;;7.40;0.40;;;4.90;99.90;;;;;;5031637;28;20018;-79
2024/02/23 01:40:03;;;;;;;7.13;0.00;;;4.80;99.90;;;;;;5040521;28;20117;-79
2024/02/23 01:42:29;;;;;;;3.22;0.00;;;4.80;99.90;;;;;;5039881;28;20025;-79
2024/02/23 01:44:58;;;;;;;7.10;0.85;;;4.80;99.90;;;;;;5039687;28;20047;-79
2024/02/23 01:47:25;;;;;;;0.38;0.00;;;4.90;99.90;;;;;;5038862;28;20030;-79
2024/02/23 01:49:51;;;;;;;4.32;0.22;;;4.90;99.90;;;;;;5038696;28;20100;-79
2024/02/23 01:52:18;;;;;;;3.65;0.00;;;5.00;99.90;;;;;;5038873;28;20021;-79
2024/02/23 01:54:44;;;;;;;6.13;0.80;;;5.00;99.90;;;;;;5039262;28;20124;-79
2024/02/23 01:57:11;;;;;;;4.28;0.10;;;5.20;99.90;;;;;;5037324;28;20041;-80
2024/02/23 01:59:38;;;;;;;4.78;0.10;;;5.20;99.90;;;;;;5038588;28;20527;-79
2024/02/23 02:02:04;;;;;;;4.47;0.30;;;;;;;;;;5038131;28;20017;-79
2024/02/23 02:04:30;;;;;;;11.38;0.10;;;;;;;;;;5038505;28;20029;-79
2024/02/23 02:06:58;;;;;;;5.43;0.28;;;5.50;99.90;;;;;;5037416;28;20508;-79
2024/02/23 02:09:25;;;;;;;9.17;0.17;;;5.50;99.90;;;;;;5037840;28;20017;-79
2024/02/23 02:11:50;;;;;;;7.20;0.38;;;5.50;99.90;;;;;;5038565;28;20018;-79
2024/02/23 02:14:17;;;;;;;4.65;0.73;;;5.50;99.90;;;;;;5038089;28;20028;-79
2024/02/23 02:16:46;;;;;;;5.75;0.13;;;5.50;99.90;;;;;;5037009;28;20022;-79
2024/02/23 02:19:14;;;;;;;4.07;0.00;;;5.50;99.90;;;;;;5038587;28;20037;-79
2024/02/23 02:21:41;;;;;;;7.28;0.32;;;8.00;99.90;;;;;;5037788;28;20053;-79
2024/02/23 02:24:06;;;;;;;1.20;0.20;;;5.50;99.90;;;;;;5037905;28;20083;-79
2024/02/23 02:26:32;;;;;;;1.80;0.38;;;5.50;99.90;;;;;;5037300;28;20022;-79
2024/02/23 02:28:59;;;;;;;2.47;0.00;;;;;;;;;;5037423;28;20033;-79
2024/02/23 02:31:27;;;;;;;6.43;0.00;;;5.40;99.90;;;;;;5037242;28;20025;-79
2024/02/23 02:33:53;;;;;;;5.65;0.52;;;;;;;;;;5038524;28;20397;-79
2024/02/23 02:36:19;;;;;;;2.08;0.00;;;5.40;99.90;;;;;;5038383;28;20034;-79
2024/02/23 02:38:45;;;;;;;3.30;0.20;;;5.80;99.90;;;;;;5036969;28;20025;-79
2024/02/23 02:41:10;;;;;;;5.38;0.10;;;5.40;99.90;;;;;;5037754;28;20021;-79
2024/02/23 02:43:36;;;;;;;4.03;0.00;;;;;;;;;;5036798;28;20484;-79
2024/02/23 02:46:02;;;;;;;8.80;0.45;;;5.50;99.90;;;;;;5037212;28;20032;-79
2024/02/23 02:48:28;;;;;;;13.20;1.17;;;;;;;;;;5037457;28;20109;-80
2024/02/23 02:50:54;;;;;;;7.88;0.15;;;5.40;99.90;;;;;;5037370;28;20084;-80
2024/02/23 02:53:20;;;;;;;5.35;0.35;;;5.90;99.90;;;;;;5037667;28;20026;-79
2024/02/23 02:55:45;;;;;;;9.25;0.00;;;5.30;99.90;;;;;;5036786;28;20112;-79
2024/02/23 02:58:12;;;;;;;5.00;0.40;;;5.30;99.90;;;;;;5037920;28;20014;-80
2024/02/23 03:00:38;;;;;;;5.75;0.20;;;5.30;99.90;;;;;;5036571;28;20029;-79
2024/02/23 03:03:04;;;;;;;7.72;0.60;;;5.30;99.90;;;;;;5036997;28;20068;-79
2024/02/23 03:05:31;;;;;;;3.08;0.20;;;5.20;99.90;;;;;;5037188;28;20085;-79
2024/02/23 03:10:33;;;;;;;12.80;0.10;;;5.30;99.90;;;;;;5975599;22;20439;-80
2024/02/23 03:12:58;;;;;;;8.95;0.63;;;5.20;99.90;;;;;;5055430;28;20072;-80
2024/02/23 03:15:24;;;;;;;13.50;0.00;;;5.20;99.90;;;;;;5057583;28;20066;-80
2024/02/23 03:17:50;;;;;;;5.00;0.00;;;5.20;99.90;;;;;;5042305;28;20017;-80
2024/02/23 03:20:16;;;;;;;5.07;0.17;;;5.20;99.90;;;;;;5036122;28;20025;-80
2024/02/23 03:22:41;;;;;;;4.18;0.32;;;5.20;99.90;;;;;;5036644;28;20583;-80
2024/02/23 03:25:08;;;;;;;8.45;0.40;;;5.10;99.90;;;;;;5036515;28;20025;-79
2024/02/23 03:27:36;;;;;;;7.82;0.75;;;5.10;99.90;;;;;;5036967;28;20374;-80
2024/02/23 03:30:05;;;;;;;2.45;0.10;;;5.20;99.90;;;;;;5036368;28;20480;-80
2024/02/23 03:32:36;;;;;;;8.20;0.10;;;5.10;99.90;;;;;;5035202;28;20412;-80
2024/02/23 03:35:05;;;;;;;4.40;0.00;;;5.10;99.90;;;;;;5035369;28;20558;-80
2024/02/23 04:15:15;;;;;;;9.18;0.35;;;4.80;99.90;;;;;;5062864;28;20035;-79
2024/02/23 04:34:51;;;;;;;2.47;0.00;;;4.80;99.90;;;;;;5044125;28;20171;-79
2024/02/23 04:37:17;;;;;;;3.65;0.10;;;4.80;99.90;;;;;;5041449;28;20457;-80
2024/02/23 04:39:44;;;;;;;9.63;0.38;;;4.70;99.90;;;;;;5039519;28;20057;-80
2024/02/23 04:42:10;;;;;;;8.63;0.50;;;;;;;;;;5039885;28;20032;-80
2024/02/23 04:44:36;;;;;;;5.55;0.30;;;;;;;;;;5039316;28;20025;-80
2024/02/23 04:47:02;;;;;;;3.08;0.10;;;4.70;99.90;;;;;;5039168;28;20056;-80
2024/02/23 04:49:28;;;;;;;5.53;0.63;;;4.70;99.90;;;;;;5039818;28;20393;-80
2024/02/23 04:51:54;;;;;;;4.35;0.85;;;4.80;99.90;;;;;;5039465;28;20014;-80
2024/02/23 04:54:20;;;;;;;3.55;0.15;;;4.80;99.90;;;;;;5039392;28;20014;-80
2024/02/23 05:07:27;;;;;;;1.10;0.10;;;5.10;99.90;;;;;;5630581;22;20045;-79
2024/02/23 05:09:53;;;;;;;6.38;0.20;;;5.10;99.90;;;;;;5060112;28;20124;-79
2024/02/23 05:12:19;;;;;;;2.55;0.20;;;5.10;99.90;;;;;;5059394;28;20017;-79
2024/02/23 05:14:45;;;;;;;8.23;0.30;;;5.10;99.90;;;;;;5060647;28;20032;-79
2024/02/23 05:30:40;;;;;;;2.25;0.35;;;;;;;;;;5054541;28;20593;-77
2024/02/23 05:33:06;;;;;;;9.82;0.52;;;5.20;99.90;;;;;;5039906;28;20481;-77
2024/02/23 05:35:31;;;;;;;4.60;0.20;;;7.60;99.90;;;;;;5039186;28;20028;-77
2024/02/23 05:37:58;;;;;;;10.80;1.05;;;5.20;99.90;;;;;;5037985;28;20032;-77
2024/02/23 05:40:24;;;;;;;3.10;0.10;;;5.20;99.90;;;;;;5038781;28;20010;-77
2024/02/23 05:42:49;;;;;;;3.80;0.55;;;5.20;99.90;;;;;;5037334;28;20033;-77
2024/02/23 05:45:15;;;;;;;6.28;0.45;;;5.30;99.90;;;;;;5037388;28;20100;-77
2024/02/23 05:47:41;;;;;;;5.47;0.30;;;5.30;99.90;;;;;;5038110;28;20020;-78
2024/02/23 05:50:11;;;;;;;2.63;0.40;;;5.20;99.90;;;;;;5037747;28;20024;-77
2024/02/23 05:52:37;;;;;;;2.45;0.20;;;5.30;99.90;;;;;;5037307;28;20021;-77
2024/02/23 05:55:03;;;;;;;3.15;0.20;;;5.30;99.90;;;;;;5036450;28;20167;-77
2024/02/23 05:57:29;;;;;;;4.38;0.17;;;5.30;99.90;;;;;;5037403;28;20033;-77
2024/02/23 05:59:55;;;;;;;3.60;0.20;;;5.30;99.90;;;;;;5037831;28;20390;-77
2024/02/23 06:02:21;;;;;;;3.15;0.20;;;5.90;99.90;;;;;;5037529;28;20393;-77
2024/02/23 06:04:47;;;;;;;3.08;0.63;;;5.40;99.90;;;;;;5038685;28;20073;-77
2024/02/23 06:07:15;;;;;;;4.10;0.20;;;5.30;99.90;;;;;;5037649;28;20053;-77
2024/02/23 06:09:41;;;;;;;3.50;0.95;;;;;;;;;;5038582;28;20091;-77
2024/02/23 06:12:07;;;;;;;3.25;0.32;;;5.30;99.90;;;;;;5038019;28;20477;-77
2024/02/23 06:14:32;;;;;;;3.40;0.40;;;5.30;99.90;;;;;;5038481;28;20419;-77
2024/02/23 06:20:24;;;;;;;3.05;0.00;;;5.30;99.90;;;;;;5459452;22;20057;-77
2024/02/23 06:33:35;;;;;;;3.53;0.65;;;5.30;99.90;;;;;;5060448;28;20028;-78
2024/02/23 06:59:36;;;;;;;6.70;0.05;;;;;;;;;;5025109;28;20117;-76
2024/02/23 07:02:04;;;;;;;3.95;0.20;;;;;;;;;;5036534;28;20037;-77
2024/02/23 07:04:30;;;;;;;3.95;0.32;;;;;;;;;;5036590;28;20059;-77
2024/02/23 07:06:56;;;;;;;2.35;0.00;;;;;;;;;;5035829;28;20617;-77
2024/02/23 07:09:22;;;;;;;2.25;0.28;;;;;;;;;;5036733;28;20075;-77
2024/02/23 07:11:48;;;;;;;1.98;0.20;;;;;;;;;;5037403;28;20500;-77
2024/02/23 07:14:16;;;;;;;2.47;0.52;;;;;;;;;;5036333;28;20021;-77
2024/02/23 07:24:58;;;;;;;4.22;0.00;;;;;;;;;;5779261;22;20104;-77
2024/02/23 07:27:26;;;;;;;2.17;0.00;;;5.80;99.90;;;;;;5047368;28;20025;-76
2024/02/23 07:29:53;;;;;;;4.50;0.13;;;5.90;99.90;;;;;;5038650;28;20503;-76
2024/02/23 07:32:19;;;;;;;3.35;0.00;;;7.00;99.90;;;;;;5035964;28;20022;-76
2024/02/23 07:34:44;;;;;;;2.50;0.00;;;5.80;99.90;;;;;;5037340;28;20068;-76
2024/02/23 07:37:10;;;;;;;3.90;0.10;;;5.80;99.90;;;;;;5038818;28;20100;-76
2024/02/23 07:39:36;;;;;;;5.57;0.05;;;5.80;99.90;;;;;;5035896;28;20483;-76
2024/02/23 07:42:03;;;;;;;8.77;0.10;;;5.80;99.90;;;;;;5037258;28;20018;-76
2024/02/23 07:44:28;;;;;;;4.20;0.00;;;5.80;99.90;;;;;;5036881;28;20021;-76
2024/02/23 07:46:55;;;;;;;5.03;0.00;;;5.80;99.90;;;;;;5036685;28;20029;-76
2024/02/23 07:49:22;;;;;;;2.85;0.00;;;5.80;99.90;;;;;;5037307;28;20028;-76
2024/02/23 07:51:48;;;;;;;2.58;0.00;;;5.90;99.90;;;;;;5036197;28;20094;-77
2024/02/23 07:54:13;;;;;;;2.17;0.35;;;5.90;99.90;;;;;;5035583;28;20049;-76
2024/02/23 07:56:39;;;;;;;3.40;0.00;;;5.90;99.90;;;;;;5036481;28;20079;-77
2024/02/23 07:59:04;;;;;;;4.03;0.20;;;5.90;99.90;;;;;;5034971;28;20082;-77
2024/02/23 08:01:30;;;;;;;1.85;0.00;;;5.90;99.90;;;;;;5038328;28;20018;-76
2024/02/23 08:03:56;;;;;;;4.22;0.32;;;;;;;;;;5037339;28;20029;-76
2024/02/23 08:14:49;;;;;;;3.30;0.00;;;;;;;;;;6097911;22;20016;-77
2024/02/23 08:17:15;;;;;;;5.30;0.40;;;6.00;99.90;;;;;;5077249;23;20532;-78
2024/02/23 08:19:41;;;;;;;6.13;0.13;;;6.00;99.90;;;;;;5055702;28;20083;-77
2024/02/23 08:22:06;;;;;;;7.97;0.08;;;6.00;99.90;;;;;;5055319;28;20623;-77
2024/02/23 08:24:34;;;;;;;0.57;0.08;;;6.00;99.90;;;;;;5055249;28;20553;-77
2024/02/23 08:29:38;;;;;;;2.05;0.03;;;6.10;99.90;;;;;;5883938;22;20055;-78
2024/02/23 08:32:04;;;;;;;2.60;0.00;;;6.00;99.90;;;;;;5055247;28;20021;-77
2024/02/23 08:34:30;;;;;;;5.80;0.10;;;6.00;99.90;;;;;;5055110;28;20087;-77
2024/02/23 08:36:56;;;;;;;6.65;0.30;;;6.00;99.90;;;;;;5051668;28;20034;-77
2024/02/23 08:39:22;;;;;;;3.03;0.22;;;6.00;99.90;;;;;;5035549;28;20469;-77
2024/02/23 08:41:48;;;;;;;3.15;0.00;;;;;;;;;;5036503;28;20013;-77
2024/02/23 08:44:14;;;;;;;2.20;0.00;;;;;;;;;;5036782;28;20034;-77
2024/02/23 08:46:39;;;;;;;3.55;0.00;;;6.00;99.90;;;;;;5036992;28;20028;-77
2024/02/23 08:49:06;;;;;;;4.72;0.00;;;;;;;;;;5036689;28;20079;-77
2024/02/23 08:51:31;;;;;;;2.75;0.25;;;6.00;99.90;;;;;;5038383;28;20009;-77
2024/02/23 08:54:03;;;;;;;3.20;0.20;;;6.00;99.90;;;;;;5038324;28;20076;-77
2024/02/23 09:02:37;;;;;;;4.28;0.00;;;6.10;99.90;;;;;;6007198;22;20045;-77
2024/02/23 09:05:04;;;;;;;3.20;0.28;;;6.10;99.90;;;;;;5060145;28;20025;-77
2024/02/23 09:07:30;;;;;;;3.50;0.00;;;6.00;99.90;;;;;;5048785;28;20022;-77
2024/02/23 09:09:57;;;;;;;4.03;0.25;;;6.00;99.90;;;;;;5040251;28;20067;-77
2024/02/23 09:12:24;;;;;;;4.82;0.57;;;6.10;99.90;;;;;;5040456;28;20108;-78
2024/02/23 09:14:49;;;;;;;6.07;0.68;;;6.20;99.90;;;;;;5039671;28;20026;-77
2024/02/23 10:26:41;;;;;;;2.05;0.00;;;6.70;99.90;;;;;;5059589;28;20102;-82
2024/02/23 10:29:08;;;;;;;5.53;0.00;;;6.70;99.90;;;;;;5039944;28;20049;-83
2024/02/23 10:31:39;;;;;;;3.72;0.10;;;6.70;99.90;;;;;;5049423;28;20022;-84
2024/02/23 10:34:11;;;;;;;1.90;0.15;;;6.70;99.90;;;;;;5050522;28;20024;-81
2024/02/23 10:36:50;;;;;;;1.67;0.10;;;6.70;99.90;;;;;;5058705;28;20025;-83
2024/02/23 10:39:19;;;;;;;;;;;6.80;99.90;;;;;;5060073;28;20013;-79
2024/02/23 10:41:55;;;;;;;9.90;0.93;;;;;;;;;;5059651;28;19925;-85
2024/02/23 10:44:21;;;;;;;2.05;0.40;;;7.00;99.90;;;;;;5059640;28;20025;-79
2024/02/23 10:46:47;;;;;;;1.88;0.13;;;;;;;;;;5059553;28;20010;-80
2024/02/23 10:49:14;;;;;;;6.85;0.73;;;7.10;99.90;;;;;;5057731;28;20040;-82
2024/02/23 10:51:41;;;;;;;1.20;0.10;;;7.20;99.90;;;;;;5054490;28;20025;-83
2024/02/23 10:54:07;;;;;;;1.35;0.20;;;;;;;;;;5054633;28;20022;-83
2024/02/23 10:56:33;;;;;;;6.22;0.10;;;7.30;99.90;;;;;;5047531;28;20183;-84
2024/02/23 10:58:59;;;;;;;3.58;1.02;;;7.30;99.90;;;;;;5044601;28;20028;-84
2024/02/23 11:01:25;;;;;;;2.83;0.20;;;;;;;;;;5038814;28;20031;-79
2024/02/23 11:03:53;;;;;;;1.08;0.15;;;7.50;99.90;;;;;;5035937;28;20036;-79
2024/02/23 11:06:21;;;;;;;2.28;0.10;;;7.40;99.90;;;;;;5037945;28;20044;-79
2024/02/23 11:08:51;;;;;;;4.13;0.00;;;7.50;99.90;;;;;;5036970;28;20049;-79
2024/02/23 11:11:17;;;;;;;0.68;0.00;;;;;;;;;;5036377;28;20029;-79
2024/02/23 11:13:46;;;;;;;2.65;0.00;;;7.60;99.90;;;;;;5035838;28;20037;-79
2024/02/23 11:16:22;;;;;;;6.93;0.90;;;7.60;99.90;;;;;;5036237;28;20033;-79
2024/02/23 11:18:48;;;;;;;2.40;0.52;;;7.60;99.90;;;;;;5035929;28;20033;-79
2024/02/23 11:21:15;;;;;;;1.40;0.10;;;7.60;99.90;;;;;;5036734;28;20484;-79
2024/02/23 11:24:06;;;;;;;2.47;0.00;;;7.60;99.90;;;;;;5035890;28;20079;-79
2024/02/23 11:26:33;;;;;;;2.70;0.30;;;7.70;99.90;;;;;;5036834;28;20028;-79
2024/02/23 11:29:09;;;;;;;2.30;0.20;;;7.70;99.90;;;;;;5035902;28;20021;-80
2024/02/23 11:31:34;;;;;;;2.08;0.00;;;7.80;99.90;;;;;;5036289;28;20021;-80
2024/02/23 11:34:00;;;;;;;4.78;0.00;;;7.90;99.90;;;;;;5038219;28;20033;-81
2024/02/23 11:36:32;;;;;;;1.20;0.10;;;7.80;99.90;;;;;;5037611;28;20021;-80
2024/02/23 11:39:00;;;;;;;2.55;0.10;;;7.80;99.90;;;;;;5036127;28;20067;-80
2024/02/23 11:41:27;;;;;;;2.70;0.10;;;7.80;99.90;;;;;;5035402;28;20022;-80
2024/02/23 11:43:55;;;;;;;2.45;0.03;;;7.90;99.90;;;;;;5035483;28;20032;-80
2024/02/23 11:46:21;;;;;;;2.00;0.10;;;7.90;99.90;;;;;;5035587;28;20094;-81
2024/02/23 11:48:53;;;;;;;3.72;0.20;;;7.90;99.90;;;;;;5035650;28;20510;-80
2024/02/23 11:51:23;;;;;;;5.72;0.73;;;10.20;99.90;;;;;;5035285;28;20026;-80
2024/02/23 11:53:50;;;;;;;2.30;0.00;;;7.90;99.90;;;;;;5036255;28;20108;-80
2024/02/23 11:56:19;;;;;;;2.95;0.03;;;;;;;;;;5036102;28;20049;-80
2024/02/23 11:58:46;;;;;;;3.20;0.00;;;7.90;99.90;;;;;;5038372;28;20025;-80
2024/02/23 12:01:12;;;;;;;2.35;0.00;;;;;;;;;;5036676;28;20477;-80
2024/02/23 12:03:39;;;;;;;7.38;0.47;;;7.90;99.90;;;;;;5036985;28;20030;-80
2024/02/23 12:06:06;;;;;;;2.17;0.00;;;8.00;99.90;;;;;;5036619;28;20025;-80
2024/02/23 12:08:37;;;;;;;4.18;0.08;;;8.00;99.90;;;;;;5036242;28;20026;-81
2024/02/23 12:11:03;;;;;;;3.75;0.05;;;8.10;99.90;;;;;;5035931;28;20436;-80
2024/02/23 12:13:29;;;;;;;1.75;0.00;;;8.10;99.90;;;;;;5037968;28;20500;-81
2024/02/23 12:15:56;;;;;;;9.85;0.10;;;8.10;99.90;;;;;;5035860;28;20030;-81
2024/02/23 12:18:32;;;;;;;3.78;0.30;;;8.10;99.90;;;;;;5037232;28;20041;-80
2024/02/23 12:21:02;;;;;;;1.85;0.08;;;8.10;99.90;;;;;;5037507;28;20025;-80
2024/02/23 12:23:37;;;;;;;2.13;0.30;;;8.10;99.90;;;;;;5038209;28;20026;-80
2024/02/23 12:26:03;;;;;;;2.47;0.00;;;8.20;99.90;;;;;;5036705;28;20064;-80
2024/02/23 12:28:29;;;;;;;4.45;0.08;;;8.20;99.90;;;;;;5035853;28;20026;-80
2024/02/23 12:31:02;;;;;;;1.45;0.00;;;8.20;99.90;;;;;;5038321;28;20101;-80
2024/02/23 12:33:31;;;;;;;0.55;0.00;;;8.10;99.90;;;;;;5039728;28;20038;-80
2024/02/23 12:35:58;;;;;;;3.83;0.30;;;8.10;99.90;;;;;;5040211;28;20021;-80
2024/02/23 12:38:25;;;;;;;3.88;0.00;;;8.10;99.90;;;;;;5041995;28;20025;-81
2024/02/23 12:40:51;;;;;;;0.75;0.00;;;8.20;99.90;;;;;;5040184;28;20021;-81
2024/02/23 12:43:18;;;;;;;2.25;0.13;;;8.30;99.90;;;;;;5041299;28;20029;-81
2024/02/23 12:45:45;;;;;;;3.50;0.05;;;8.30;99.90;;;;;;5040492;28;20021;-80
2024/02/23 12:48:11;;;;;;;2.35;0.00;;;8.40;99.90;;;;;;5040434;28;20026;-80
2024/02/23 12:50:36;;;;;;;3.08;0.43;;;8.40;99.90;;;;;;5042662;28;20048;-81
2024/02/23 12:53:04;;;;;;;3.03;0.30;;;8.50;99.90;;;;;;5041283;28;20040;-80
2024/02/23 12:55:29;;;;;;;1.23;0.00;;;8.40;99.90;;;;;;5041960;28;20022;-80
2024/02/23 12:57:55;;;;;;;3.58;0.10;;;;;;;;;;5041252;28;20029;-81
2024/02/23 13:00:21;;;;;;;1.17;0.52;;;8.50;99.90;;;;;;5040934;28;20026;-81
2024/02/23 13:02:47;;;;;;;3.78;0.00;;;10.00;99.90;;;;;;5039640;28;20021;-80
2024/02/23 13:05:13;;;;;;;5.38;0.10;;;8.30;99.90;;;;;;5039804;28;20074;-80
2024/02/23 13:07:40;;;;;;;6.47;0.00;;;8.40;99.90;;;;;;5039877;28;20021;-81
2024/02/23 13:10:06;;;;;;;1.88;0.13;;;8.40;99.90;;;;;;5040580;28;20022;-81
2024/02/23 13:12:33;;;;;;;5.40;0.40;;;8.40;99.90;;;;;;5040693;28;20025;-81
2024/02/23 13:14:58;;;;;;;1.92;0.20;;;8.40;99.90;;;;;;5040948;28;20029;-81
2024/02/23 13:17:25;;;;;;;3.00;0.00;;;;;;;;;;5040124;28;20116;-81
2024/02/23 13:19:51;;;;;;;2.58;0.20;;;8.40;99.90;;;;;;5039711;28;20022;-80
2024/02/23 13:22:17;;;;;;;3.13;0.22;;;;;;;;;;5040434;28;20025;-81
2024/02/23 13:24:42;;;;;;;2.22;0.10;;;8.50;99.90;;;;;;5040450;28;20048;-80
2024/02/23 13:27:08;;;;;;;1.83;0.10;;;8.50;99.90;;;;;;5039514;28;20108;-81
2024/02/23 13:29:36;;;;;;;3.45;0.13;;;8.50;99.90;;;;;;5040187;28;20581;-80
2024/02/23 13:32:02;;;;;;;2.25;0.05;;;8.70;99.90;;;;;;5039225;28;20032;-80
2024/02/23 13:34:27;;;;;;;1.65;0.10;;;8.70;99.90;;;;;;5039289;28;20021;-81
2024/02/23 13:36:53;;;;;;;1.98;0.00;;;8.70;99.90;;;;;;5040246;28;20552;-81
2024/02/23 13:39:19;;;;;;;1.85;0.00;;;8.80;99.90;;;;;;5040299;28;20029;-80
2024/02/23 13:41:44;;;;;;;3.03;0.10;;;10.40;99.90;;;;;;5038322;28;20049;-80
2024/02/23 13:44:10;;;;;;;2.60;0.63;;;8.90;99.90;;;;;;5040407;28;20025;-80
2024/02/23 13:46:39;;;;;;;4.88;0.00;;;8.90;99.90;;;;;;5039595;28;20030;-81
2024/02/23 13:49:07;;;;;;;1.08;0.10;;;8.90;99.90;;;;;;5039033;28;20021;-81
2024/02/23 13:51:33;;;;;;;2.80;0.08;;;8.80;99.90;;;;;;5038834;28;20032;-81
2024/02/23 13:53:59;;;;;;;2.10;0.00;;;8.80;99.90;;;;;;5039518;28;20026;-81
2024/02/23 13:56:25;;;;;;;2.47;0.10;;;8.80;99.90;;;;;;5040241;28;20083;-80
2024/02/23 13:58:51;;;;;;;5.40;0.30;;;8.80;99.90;;;;;;5040986;28;20025;-81
2024/02/23 14:01:17;;;;;;;1.48;0.05;;;8.70;99.90;;;;;;5039905;28;20060;-80
2024/02/23 14:03:44;;;;;;;1.13;0.00;;;8.70;99.90;;;;;;5039246;28;20397;-81
2024/02/23 14:06:09;;;;;;;0.85;0.00;;;8.80;99.90;;;;;;5039775;28;20021;-81
2024/02/23 14:08:37;;;;;;;5.93;0.98;;;8.80;99.90;;;;;;5038289;28;20036;-81
2024/02/23 14:11:05;;;;;;;2.53;0.00;;;9.10;99.90;;;;;;5038718;28;20436;-81
2024/02/23 14:13:32;;;;;;;0.70;0.10;;;;;;;;;;5038910;28;20044;-81
2024/02/23 14:15:58;;;;;;;1.77;0.00;;;9.30;99.90;;;;;;5037759;28;20034;-81
2024/02/23 14:18:24;;;;;;;1.15;0.03;;;9.60;99.90;;;;;;5039816;28;20028;-81
2024/02/23 14:20:52;;;;;;;3.78;0.10;;;9.80;99.90;;;;;;5039898;28;20036;-81
2024/02/23 14:23:17;;;;;;;2.83;0.00;;;9.80;99.90;;;;;;5038801;28;20431;-81
2024/02/23 14:25:44;;;;;;;3.28;0.10;;;9.80;99.90;;;;;;5037956;28;20274;-81
2024/02/23 14:28:13;;;;;;;1.38;0.00;;;9.90;99.90;;;;;;5039840;28;20025;-81
2024/02/23 14:30:40;;;;;;;1.65;0.00;;;9.80;99.90;;;;;;5039664;28;20013;-81
2024/02/23 14:33:06;;;;;;;6.30;0.30;;;9.80;99.90;;;;;;5037846;28;20033;-81
2024/02/23 14:35:31;;;;;;;0.00;0.00;;;9.80;99.90;;;;;;5037597;28;20017;-81
2024/02/23 14:37:57;;;;;;;0.32;0.00;;;9.60;99.90;;;;;;5038045;28;20025;-81
2024/02/23 14:40:23;;;;;;;1.63;0.00;;;9.60;99.90;;;;;;5037502;28;20040;-81
2024/02/23 14:42:49;;;;;;;0.77;0.00;;;;;;;;;;5037005;28;20041;-81
2024/02/23 14:45:16;;;;;;;1.35;0.00;;;9.40;99.90;;;;;;5037556;28;20067;-81
2024/02/23 14:47:44;;;;;;;0.80;0.00;;;;;;;;;;5036746;28;20028;-81
2024/02/23 14:50:10;;;;;;;1.17;0.00;;;9.20;99.90;;;;;;5037271;28;20085;-81
2024/02/23 14:52:36;;;;;;;0.55;0.00;;;9.10;99.90;;;;;;5037099;28;20031;-81
2024/02/23 14:55:03;;;;;;;0.00;0.00;;;9.10;99.90;;;;;;5036839;28;20108;-81
2024/02/23 14:57:29;;;;;;;1.33;0.00;;;9.10;99.90;;;;;;5036892;28;20032;-81
2024/02/23 14:59:54;;;;;;;0.00;0.00;;;9.00;99.90;;;;;;5037464;28;20492;-81
2024/02/23 15:02:22;;;;;;;0.13;0.00;;;8.90;99.90;;;;;;5036484;28;20030;-81
2024/02/23 15:04:48;;;;;;;1.05;0.30;;;8.90;99.90;;;;;;5039145;28;20045;-81
2024/02/23 15:07:14;;;;;;;3.92;0.00;;;8.80;99.90;;;;;;5038213;28;20105;-81
2024/02/23 15:09:39;;;;;;;2.47;0.00;;;8.80;99.90;;;;;;5037038;28;20029;-81
2024/02/23 15:12:05;;;;;;;0.10;0.00;;;8.60;99.90;;;;;;5036330;28;20477;-81
2024/02/23 15:14:31;;;;;;;0.10;0.00;;;8.60;99.90;;;;;;5036960;28;20054;-80
2024/02/23 15:16:57;;;;;;;0.75;0.00;;;;;;;;;;5037348;28;20017;-80
2024/02/23 15:19:23;;;;;;;0.30;0.00;;;8.50;99.90;;;;;;5038454;28;20036;-80
2024/02/23 15:21:52;;;;;;;2.53;0.00;;;8.50;99.90;;;;;;5037426;28;20026;-80
2024/02/23 15:24:20;;;;;;;2.60;0.00;;;8.50;99.90;;;;;;5036731;28;20489;-80
2024/02/23 15:26:46;;;;;;;0.20;0.17;;;8.50;99.90;;;;;;5038622;28;20030;-81
2024/02/23 15:29:12;;;;;;;1.23;0.00;;;8.50;99.90;;;;;;5038264;28;20061;-81
2024/02/23 15:31:39;;;;;;;1.02;0.00;;;8.50;99.90;;;;;;5038017;28;20026;-80
2024/02/23 15:34:05;;;;;;;1.65;0.13;;;8.80;99.90;;;;;;5037395;28;20025;-84
2024/02/23 15:36:31;;;;;;;2.17;0.25;;;9.20;99.90;;;;;;5039041;28;20028;-85
2024/02/23 15:39:02;;;;;;;3.47;0.00;;;9.30;99.90;;;;;;5039074;28;20025;-85
2024/02/23 15:41:29;;;;;;;2.08;0.00;;;9.50;99.90;;;;;;5040372;28;20410;-84
2024/02/23 15:43:55;;;;;;;3.58;0.00;;;;;;;;;;5038234;28;20105;-85
2024/02/23 15:46:21;;;;;;;1.55;0.00;;;9.20;99.90;;;;;;5038090;28;20064;-85
2024/02/23 15:48:47;;;;;;;3.30;0.28;;;;;;;;;;5038525;28;20072;-84
2024/02/23 15:51:13;;;;;;;3.10;0.00;;;;;;;;;;5039115;28;20033;-84
2024/02/23 15:53:39;;;;;;;0.75;0.03;;;;;;;;;;5038386;28;20033;-84
2024/02/23 15:56:06;;;;;;;0.28;0.00;;;8.80;99.90;;;;;;5038640;28;20033;-84
2024/02/23 15:58:32;;;;;;;0.15;0.00;;;;;;;;;;5038419;28;20024;-84
2024/02/23 16:00:57;;;;;;;4.00;0.05;;;8.70;99.90;;;;;;5038516;28;20033;-85
2024/02/23 16:03:23;;;;;;;1.27;0.13;;;8.60;99.90;;;;;;5039482;28;20033;-84
2024/02/23 16:05:49;;;;;;;1.08;0.00;;;;;;;;;;5038501;28;20021;-84
2024/02/23 16:08:15;;;;;;;0.10;0.00;;;;;;;;;;5040054;28;20026;-83
2024/02/23 16:10:41;;;;;;;2.38;0.00;;;8.40;99.90;;;;;;5041535;28;20026;-84
2024/02/23 16:13:08;;;;;;;1.50;0.00;;;9.10;99.90;;;;;;5042130;28;20111;-84
2024/02/23 16:15:34;;;;;;;1.63;0.00;;;8.30;99.90;;;;;;5042754;28;20026;-84
2024/02/23 16:17:59;;;;;;;1.85;0.38;;;8.30;99.90;;;;;;5041974;28;20024;-86
2024/02/23 16:20:25;;;;;;;1.83;0.00;;;9.00;99.90;;;;;;5043781;28;20079;-84
2024/02/23 16:22:51;;;;;;;1.00;0.00;;;8.20;99.90;;;;;;5042935;28;20029;-84
2024/02/23 16:25:17;;;;;;;2.72;0.28;;;10.10;99.90;;;;;;5041128;28;20052;-84
2024/02/23 16:27:43;;;;;;;3.40;0.00;;;8.20;99.90;;;;;;5042325;28;20049;-84
2024/02/23 16:30:09;;;;;;;0.75;0.10;;;8.10;99.90;;;;;;5041731;28;20017;-84
2024/02/23 16:32:35;;;;;;;4.75;0.73;;;;;;;;;;5041626;28;20026;-85
2024/02/23 16:35:03;;;;;;;0.63;0.00;;;;;;;;;;5041177;28;20034;-85
2024/02/23 16:37:32;;;;;;;0.63;0.00;;;8.00;99.90;;;;;;5039499;28;20036;-87
2024/02/23 16:39:59;;;;;;;3.03;0.00;;;;;;;;;;5039859;28;20493;-86
2024/02/23 16:42:24;;;;;;;0.50;0.05;;;8.10;99.90;;;;;;5040921;28;20428;-85
2024/02/23 16:44:50;;;;;;;3.15;0.25;;;;;;;;;;5039713;28;20120;-86